createdAt,value
2019-02-22T00:01:45.053Z,35.10
2019-02-22T00:04:14.768Z,34.73
2019-02-22T00:06:44.346Z,33.50
2019-02-22T00:09:14.180Z,33.10
2019-02-22T00:11:43.849Z,32.87
2019-02-22T00:14:13.667Z,31.87
2019-02-22T00:16:43.268Z,33.03
2019-02-22T00:19:13.410Z,32.83
2019-02-22T00:21:43.210Z,31.50
2019-02-22T00:24:12.868Z,32.80
2019-02-22T00:26:42.617Z,32.47
2019-02-22T00:29:12.760Z,31.33
2019-02-22T00:31:42.437Z,29.77
2019-02-22T00:34:12.336Z,29.07
2019-02-22T00:36:41.889Z,28.33
2019-02-22T00:39:11.812Z,27.23
2019-02-22T00:41:41.527Z,28.37
2019-02-22T00:44:11.120Z,28.73
2019-02-22T00:46:40.717Z,29.80
2019-02-22T00:49:10.497Z,26.47
2019-02-22T00:51:40.138Z,30.17
2019-02-22T00:54:09.840Z,28.90
2019-02-22T00:56:39.527Z,29.17
2019-02-22T00:59:09.550Z,28.53
2019-02-22T01:01:39.145Z,28.63
2019-02-22T01:04:08.840Z,30.13
2019-02-22T01:06:38.492Z,30.43
2019-02-22T01:09:08.421Z,30.70
2019-02-22T01:11:37.927Z,31.27
2019-02-22T01:14:07.627Z,30.83
2019-02-22T01:16:37.195Z,31.70
2019-02-22T01:19:07.064Z,31.97
2019-02-22T01:21:36.709Z,31.57
2019-02-22T01:24:06.450Z,32.47
2019-02-22T01:26:36.017Z,33.93
2019-02-22T01:29:06.063Z,33.77
2019-02-22T01:31:35.663Z,33.27
2019-02-22T01:34:05.686Z,32.20
2019-02-22T01:36:36.069Z,32.70
2019-02-22T01:39:06.668Z,32.10
2019-02-22T01:41:36.251Z,31.30
2019-02-22T01:44:06.107Z,32.27
2019-02-22T01:46:35.700Z,33.73
2019-02-22T01:49:05.527Z,31.40
2019-02-22T01:51:35.096Z,31.43
2019-02-22T01:54:04.931Z,31.07
2019-02-22T01:56:34.490Z,31.40
2019-02-22T01:59:04.243Z,32.20
2019-02-22T02:01:33.946Z,28.60
2019-02-22T02:04:03.681Z,29.57
2019-02-22T02:06:33.349Z,28.23
2019-02-22T02:09:04.606Z,28.50
2019-02-22T02:11:34.289Z,28.87
2019-02-22T02:14:03.924Z,27.37
2019-02-22T02:16:33.944Z,28.90
2019-02-22T02:19:03.479Z,27.70
2019-02-22T02:21:33.179Z,26.10
2019-02-22T02:24:02.728Z,25.47
2019-02-22T02:26:32.514Z,24.93
2019-02-22T02:29:02.070Z,23.43
2019-02-22T02:31:31.673Z,21.60
2019-02-22T02:34:01.692Z,22.27
2019-02-22T02:36:31.790Z,24.10
2019-02-22T02:39:01.764Z,19.83
2019-02-22T02:41:31.309Z,19.60
2019-02-22T02:44:01.066Z,19.20
2019-02-22T02:46:30.653Z,18.83
2019-02-22T02:49:00.619Z,19.80
2019-02-22T02:51:30.154Z,20.13
2019-02-22T02:53:59.804Z,20.40
2019-02-22T02:56:29.559Z,21.67
2019-02-22T02:58:59.208Z,21.03
2019-02-22T03:01:28.874Z,21.27
2019-02-22T03:03:58.494Z,21.80
2019-02-22T03:06:32.976Z,23.30
2019-02-22T03:09:02.465Z,23.00
2019-02-22T03:11:32.187Z,22.30
2019-02-22T03:14:01.762Z,23.67
2019-02-22T03:16:31.354Z,25.37
2019-02-22T03:19:00.943Z,25.23
2019-02-22T03:21:30.578Z,26.00
2019-02-22T03:24:00.214Z,25.43
2019-02-22T03:26:29.912Z,24.90
2019-02-22T03:28:59.604Z,24.97
2019-02-22T03:31:29.453Z,25.57
2019-02-22T03:33:59.166Z,25.63
2019-02-22T03:36:29.019Z,26.20
2019-02-22T03:38:58.586Z,26.30
2019-02-22T03:41:33.020Z,26.43
2019-02-22T03:43:59.907Z,26.30
2019-02-22T03:46:29.499Z,27.93
2019-02-22T03:48:59.408Z,27.67
2019-02-22T03:51:29.156Z,27.30
2019-02-22T03:53:58.907Z,27.17
2019-02-22T03:56:28.504Z,27.37
2019-02-22T03:58:58.203Z,28.80
2019-02-22T04:01:27.958Z,28.53
2019-02-22T04:03:57.568Z,28.97
2019-02-22T04:06:27.310Z,29.00
2019-02-22T04:08:57.004Z,28.70
2019-02-22T04:11:26.846Z,29.20
2019-02-22T04:13:56.809Z,29.43
2019-02-22T04:16:26.627Z,30.13
2019-02-22T04:18:56.224Z,29.17
2019-02-22T04:21:25.954Z,31.20
2019-02-22T04:23:55.654Z,31.40
2019-02-22T04:26:25.438Z,30.57
2019-02-22T04:28:55.043Z,31.83
2019-02-22T04:31:24.782Z,31.73
2019-02-22T04:33:54.771Z,32.13
2019-02-22T04:36:24.481Z,33.83
2019-02-22T04:38:54.086Z,31.50
2019-02-22T04:41:23.648Z,31.57
2019-02-22T04:43:53.321Z,32.57
2019-02-22T04:46:23.071Z,33.87
2019-02-22T04:48:52.749Z,32.30
2019-02-22T04:51:22.503Z,32.80
2019-02-22T04:53:52.060Z,32.53
2019-02-22T04:56:21.960Z,32.10
2019-02-22T04:58:51.596Z,31.97
2019-02-22T05:01:21.337Z,32.20
2019-02-22T05:03:50.921Z,33.60
2019-02-22T05:06:20.738Z,32.57
2019-02-22T05:08:50.382Z,32.43
2019-02-22T05:11:20.223Z,33.03
2019-02-22T05:13:49.741Z,33.87
2019-02-22T05:16:19.508Z,33.30
2019-02-22T05:18:49.210Z,31.90
2019-02-22T05:21:19.089Z,32.17
2019-02-22T05:23:48.642Z,34.23
2019-02-22T05:26:18.182Z,32.73
2019-02-22T05:28:47.746Z,33.87
2019-02-22T05:31:17.337Z,34.37
2019-02-22T05:33:47.037Z,34.50
2019-02-22T05:36:16.705Z,32.93
2019-02-22T05:38:46.412Z,34.47
2019-02-22T05:41:16.152Z,32.23
2019-02-22T05:43:45.858Z,33.23
2019-02-22T05:46:15.668Z,31.37
2019-02-22T05:48:45.314Z,32.03
2019-02-22T05:51:14.961Z,33.00
2019-02-22T05:53:44.719Z,33.10
2019-02-22T05:56:14.347Z,33.07
2019-02-22T05:58:44.137Z,33.27
2019-02-22T06:01:13.784Z,33.40
2019-02-22T06:03:43.306Z,31.10
2019-02-22T06:06:13.118Z,33.37
2019-02-22T06:08:42.997Z,32.03
2019-02-22T06:11:12.563Z,34.80
2019-02-22T06:13:42.691Z,32.10
2019-02-22T06:16:12.286Z,35.87
2019-02-22T06:18:41.964Z,32.13
2019-02-22T06:21:11.525Z,33.73
2019-02-22T06:23:41.262Z,32.30
2019-02-22T06:26:10.872Z,33.33
2019-02-22T06:28:40.996Z,32.90
2019-02-22T06:31:10.608Z,34.83
2019-02-22T06:33:40.443Z,33.10
2019-02-22T06:36:10.382Z,31.20
2019-02-22T06:38:40.105Z,33.07
2019-02-22T06:41:09.891Z,33.37
2019-02-22T06:43:39.501Z,32.90
2019-02-22T06:46:09.111Z,32.43
2019-02-22T06:48:38.823Z,34.67
2019-02-22T06:51:08.875Z,33.80
2019-02-22T06:53:38.803Z,32.53
2019-02-22T06:56:08.442Z,32.23
2019-02-22T06:58:38.317Z,32.73
2019-02-22T07:01:07.831Z,31.63
2019-02-22T07:03:37.520Z,32.07
2019-02-22T07:06:07.221Z,32.97
2019-02-22T07:08:37.095Z,31.17
2019-02-22T07:11:08.348Z,30.77
2019-02-22T07:13:37.917Z,30.60
2019-02-22T07:16:07.619Z,32.03
2019-02-22T07:18:37.368Z,31.60
2019-02-22T07:21:07.080Z,30.37
2019-02-22T07:23:36.569Z,32.60
2019-02-22T07:26:06.448Z,31.00
2019-02-22T07:28:35.990Z,32.37
2019-02-22T07:31:06.317Z,31.57
2019-02-22T07:33:36.038Z,31.80
2019-02-22T07:36:05.768Z,32.03
2019-02-22T07:38:35.425Z,32.60
2019-02-22T07:41:05.028Z,31.47
2019-02-22T07:43:34.821Z,30.73
2019-02-22T07:46:04.555Z,31.33
2019-02-22T07:48:34.315Z,29.77
2019-02-22T07:51:04.109Z,30.77
2019-02-22T07:53:33.752Z,30.73
2019-02-22T07:56:03.457Z,30.97
2019-02-22T07:58:33.088Z,28.77
2019-02-22T08:01:03.056Z,28.57
2019-02-22T08:03:32.546Z,29.53
2019-02-22T08:06:02.231Z,29.50
2019-02-22T08:08:31.952Z,28.10
2019-02-22T08:11:01.547Z,28.53
2019-02-22T08:13:31.458Z,29.63
2019-02-22T08:16:01.031Z,28.27
2019-02-22T08:18:30.807Z,30.23
2019-02-22T08:21:00.401Z,29.43
2019-02-22T08:23:30.072Z,28.57
2019-02-22T08:25:59.807Z,27.90
2019-02-22T08:28:29.376Z,27.60
2019-02-22T08:31:00.774Z,29.60
2019-02-22T08:33:30.511Z,27.93
2019-02-22T08:36:00.239Z,31.03
2019-02-22T08:38:29.843Z,26.60
2019-02-22T08:40:59.596Z,29.07
2019-02-22T08:43:31.882Z,30.13
2019-02-22T08:46:00.578Z,30.33
2019-02-22T08:48:30.250Z,30.73
2019-02-22T08:50:59.844Z,32.10
2019-02-22T08:53:29.564Z,30.87
2019-02-22T08:55:59.207Z,32.50
2019-02-22T08:58:28.911Z,32.73
2019-02-22T09:00:58.718Z,34.17
2019-02-22T09:03:28.455Z,30.00
2019-02-22T09:05:58.046Z,31.90
2019-02-22T09:08:27.953Z,32.23
2019-02-22T09:11:00.813Z,32.87
2019-02-22T09:13:29.025Z,33.43
2019-02-22T09:15:58.920Z,32.90
2019-02-22T09:18:28.659Z,33.53
2019-02-22T09:20:58.342Z,33.37
2019-02-22T09:23:28.119Z,33.13
2019-02-22T09:25:57.705Z,33.33
2019-02-22T09:28:27.807Z,33.33
2019-02-22T09:30:57.525Z,36.83
2019-02-22T09:33:27.461Z,36.13
2019-02-22T09:35:57.377Z,35.60
2019-02-22T09:38:26.935Z,36.07
2019-02-22T09:40:56.542Z,37.23
2019-02-22T09:43:26.129Z,35.63
2019-02-22T09:45:56.295Z,36.27
2019-02-22T09:48:26.200Z,37.57
2019-02-22T09:50:55.824Z,35.23
2019-02-22T09:53:25.756Z,36.20
2019-02-22T09:55:55.807Z,34.63
2019-02-22T09:58:25.740Z,34.37
2019-02-22T10:00:55.560Z,33.97
2019-02-22T10:03:25.561Z,34.13
2019-02-22T10:05:55.335Z,37.13
2019-02-22T10:08:25.075Z,35.47
2019-02-22T10:10:54.624Z,35.20
2019-02-22T10:13:24.334Z,36.07
2019-02-22T10:15:54.209Z,34.70
2019-02-22T10:18:23.912Z,35.17
2019-02-22T10:20:53.648Z,33.83
2019-02-22T10:23:23.169Z,36.67
2019-02-22T10:25:52.669Z,36.87
2019-02-22T10:28:22.881Z,33.63
2019-02-22T10:30:52.660Z,37.97
2019-02-22T10:33:22.350Z,36.43
2019-02-22T10:35:52.078Z,35.70
2019-02-22T10:38:21.711Z,35.47
2019-02-22T10:40:51.462Z,34.77
2019-02-22T10:43:21.163Z,36.17
2019-02-22T10:45:50.850Z,37.40
2019-02-22T10:48:20.558Z,38.90
2019-02-22T10:50:50.357Z,38.53
2019-02-22T10:53:20.020Z,37.13
2019-02-22T10:55:49.748Z,37.97
2019-02-22T10:58:19.349Z,37.57
2019-02-22T11:00:49.084Z,37.70
2019-02-22T11:03:18.809Z,40.00
2019-02-22T11:05:48.494Z,39.40
2019-02-22T11:08:18.119Z,40.60
2019-02-22T11:10:48.052Z,42.23
2019-02-22T11:13:17.717Z,43.07
2019-02-22T11:15:47.455Z,43.97
2019-02-22T11:18:17.032Z,42.73
2019-02-22T11:20:46.938Z,43.50
2019-02-22T11:23:16.514Z,43.93
2019-02-22T11:25:46.338Z,41.37
2019-02-22T11:28:16.088Z,43.90
2019-02-22T11:30:46.038Z,41.07
2019-02-22T11:33:15.585Z,37.10
2019-02-22T11:35:45.522Z,38.23
2019-02-22T11:38:15.275Z,37.17
2019-02-22T11:40:44.952Z,35.30
2019-02-22T11:43:16.184Z,36.73
2019-02-22T11:45:45.933Z,34.50
2019-02-22T11:48:15.548Z,33.60
2019-02-22T11:50:45.264Z,31.03
2019-02-22T11:53:14.916Z,31.40
2019-02-22T11:55:44.879Z,33.63
2019-02-22T11:58:14.375Z,28.53
2019-02-22T12:00:44.143Z,28.67
2019-02-22T12:03:24.347Z,28.47
2019-02-22T12:05:45.155Z,29.40
2019-02-22T12:08:15.270Z,28.10
2019-02-22T12:10:45.153Z,26.87
2019-02-22T12:13:14.655Z,26.57
2019-02-22T12:15:44.380Z,28.10
2019-02-22T12:18:13.941Z,28.23
2019-02-22T12:20:43.775Z,26.13
2019-02-22T12:23:13.487Z,27.87
2019-02-22T12:25:44.565Z,27.87
2019-02-22T12:28:14.913Z,27.43
2019-02-22T12:30:44.784Z,25.30
2019-02-22T12:33:14.403Z,24.87
2019-02-22T12:35:44.324Z,26.47
2019-02-22T12:38:14.324Z,25.60
2019-02-22T12:40:43.962Z,25.13
2019-02-22T12:43:13.743Z,26.13
2019-02-22T12:45:43.337Z,27.50
2019-02-22T12:48:13.254Z,27.30
2019-02-22T12:50:42.776Z,26.13
2019-02-22T12:53:12.542Z,24.97
2019-02-22T12:55:42.164Z,25.33
2019-02-22T12:58:11.817Z,24.10
2019-02-22T13:00:41.448Z,23.23
2019-02-22T13:03:11.272Z,25.70
2019-02-22T13:05:41.031Z,24.63
2019-02-22T13:08:10.717Z,25.43
2019-02-22T13:10:40.389Z,22.93
2019-02-22T13:13:10.656Z,24.50
2019-02-22T13:15:40.264Z,23.77
2019-02-22T13:18:10.035Z,21.13
2019-02-22T13:20:39.929Z,20.90
2019-02-22T13:23:09.556Z,18.50
2019-02-22T13:25:39.414Z,18.90
2019-02-22T13:28:09.427Z,16.00
2019-02-22T13:30:39.183Z,16.07
2019-02-22T13:33:09.223Z,14.77
2019-02-22T13:35:39.064Z,14.53
2019-02-22T13:38:28.111Z,12.50
2019-02-22T13:40:57.953Z,13.17
2019-02-22T13:43:28.102Z,12.93
2019-02-22T13:45:58.023Z,13.33
2019-02-22T13:48:27.870Z,13.87
2019-02-22T13:50:57.643Z,13.93
2019-02-22T13:53:27.436Z,12.53
2019-02-22T13:55:57.517Z,12.43
2019-02-22T13:58:27.254Z,12.67
2019-02-22T14:00:56.955Z,12.07
2019-02-22T14:03:26.804Z,12.50
2019-02-22T14:05:57.019Z,13.13
2019-02-22T14:08:26.739Z,12.97
2019-02-22T14:10:56.557Z,12.20
2019-02-22T14:13:26.529Z,12.77
2019-02-22T14:15:56.233Z,13.20
2019-02-22T14:18:26.001Z,13.87
2019-02-22T14:20:55.679Z,13.33
2019-02-22T14:23:25.696Z,13.07
2019-02-22T14:25:55.793Z,13.97
2019-02-22T14:28:25.797Z,14.67
2019-02-22T14:31:14.866Z,14.37
2019-02-22T14:33:44.866Z,13.03
2019-02-22T14:36:14.923Z,12.73
2019-02-22T14:38:44.678Z,13.47
2019-02-22T14:41:14.549Z,12.83
2019-02-22T14:43:44.405Z,11.67
2019-02-22T14:46:25.364Z,11.30
2019-02-22T14:48:45.768Z,11.47
2019-02-22T14:51:15.569Z,10.77
2019-02-22T14:53:45.527Z,10.17
2019-02-22T14:56:15.153Z,10.13
2019-02-22T14:58:44.764Z,9.73
2019-02-22T15:01:14.507Z,9.93
2019-02-22T15:03:44.138Z,9.03
2019-02-22T15:06:13.847Z,9.33
2019-02-22T15:08:43.551Z,8.50
2019-02-22T15:11:13.424Z,7.80
2019-02-22T15:13:43.373Z,7.40
2019-02-22T15:16:17.752Z,7.33
2019-02-22T15:18:48.018Z,8.27
2019-02-22T15:21:18.743Z,7.00
2019-02-22T15:23:48.518Z,7.80
2019-02-22T15:26:18.227Z,7.53
2019-02-22T15:28:48.287Z,6.67
2019-02-22T15:31:18.213Z,8.27
2019-02-22T15:33:48.180Z,8.60
2019-02-22T15:36:18.161Z,8.30
2019-02-22T15:38:48.011Z,9.03
2019-02-22T15:41:17.684Z,8.47
2019-02-22T15:43:48.657Z,8.13
2019-02-22T15:46:18.653Z,9.43
2019-02-22T15:48:48.674Z,8.57
2019-02-22T15:51:18.629Z,8.70
2019-02-22T15:53:48.382Z,8.07
2019-02-22T15:56:18.580Z,8.63
2019-02-22T15:58:48.473Z,8.83
2019-02-22T16:01:18.203Z,8.77
2019-02-22T16:03:52.239Z,8.67
2019-02-22T16:06:22.508Z,9.20
2019-02-22T16:08:52.187Z,9.10
2019-02-22T16:11:22.038Z,9.00
2019-02-22T16:13:52.068Z,9.67
2019-02-22T16:16:24.335Z,9.50
2019-02-22T16:18:53.971Z,9.23
2019-02-22T16:21:24.239Z,9.43
2019-02-22T16:23:53.992Z,9.97
2019-02-22T16:26:25.559Z,9.30
2019-02-22T16:28:55.131Z,10.37
2019-02-22T16:31:24.999Z,10.73
2019-02-22T16:33:54.626Z,10.13
2019-02-22T16:36:24.903Z,11.27
2019-02-22T16:38:54.966Z,11.60
2019-02-22T16:41:24.945Z,11.00
2019-02-22T16:43:54.956Z,11.40
2019-02-22T16:46:34.574Z,11.90
2019-02-22T16:48:56.132Z,10.97
2019-02-22T16:51:26.091Z,11.23
2019-02-22T16:53:55.733Z,11.47
2019-02-22T16:56:25.791Z,12.13
2019-02-22T16:58:55.351Z,12.30
2019-02-22T17:01:25.533Z,13.43
2019-02-22T17:03:55.371Z,11.67
2019-02-22T17:06:25.537Z,12.37
2019-02-22T17:08:55.236Z,12.67
2019-02-22T17:11:25.826Z,12.77
2019-02-22T17:13:55.550Z,12.37
2019-02-22T17:16:26.696Z,12.23
2019-02-22T17:18:56.451Z,12.40
2019-02-22T17:21:27.608Z,12.70
2019-02-22T17:23:57.507Z,12.83
2019-02-22T17:26:27.325Z,12.83
2019-02-22T17:28:56.910Z,12.53
2019-02-22T17:31:27.358Z,13.40
2019-02-22T17:33:56.996Z,13.20
2019-02-22T17:36:27.321Z,13.27
2019-02-22T17:38:57.241Z,13.03
2019-02-22T17:41:27.302Z,14.47
2019-02-22T17:43:57.202Z,12.90
2019-02-22T17:46:27.294Z,13.57
2019-02-22T17:48:57.154Z,14.50
2019-02-22T17:51:26.678Z,13.23
2019-02-22T17:53:56.511Z,14.40
2019-02-22T17:56:26.095Z,14.03
2019-02-22T17:58:55.889Z,14.57
2019-02-22T18:01:25.555Z,14.57
2019-02-22T18:03:55.406Z,14.50
2019-02-22T18:06:24.967Z,15.57
2019-02-22T18:08:54.611Z,14.30
2019-02-22T18:11:24.372Z,16.57
2019-02-22T18:13:54.158Z,15.63
2019-02-22T18:16:23.968Z,14.87
2019-02-22T18:18:53.866Z,15.87
2019-02-22T18:21:24.057Z,16.03
2019-02-22T18:23:53.822Z,15.50
2019-02-22T18:26:23.532Z,15.50
2019-02-22T18:28:54.724Z,15.00
2019-02-22T18:31:24.651Z,14.50
2019-02-22T18:33:54.378Z,15.17
2019-02-22T18:36:24.232Z,14.40
2019-02-22T18:38:54.265Z,15.43
2019-02-22T18:41:24.028Z,16.03
2019-02-22T18:43:53.711Z,16.63
2019-02-22T18:46:23.372Z,16.83
2019-02-22T18:48:53.146Z,16.37
2019-02-22T18:51:22.892Z,17.70
2019-02-22T18:53:52.711Z,19.93
2019-02-22T18:56:22.649Z,17.33
2019-02-22T18:58:52.654Z,20.27
2019-02-22T19:01:22.437Z,17.33
2019-02-22T19:03:52.139Z,17.30
2019-02-22T19:06:21.905Z,17.53
2019-02-22T19:08:51.476Z,18.97
2019-02-22T19:11:21.852Z,18.17
2019-02-22T19:13:51.442Z,18.37
2019-02-22T19:16:21.311Z,19.93
2019-02-22T19:18:50.777Z,20.27
2019-02-22T19:21:20.441Z,19.80
2019-02-22T19:23:50.421Z,19.80
2019-02-22T19:26:20.440Z,19.90
2019-02-22T19:28:54.544Z,19.67
2019-02-22T19:31:24.460Z,20.47
2019-02-22T19:33:53.967Z,21.57
2019-02-22T19:36:23.486Z,20.47
2019-02-22T19:38:53.323Z,21.37
2019-02-22T19:41:23.319Z,22.30
2019-02-22T19:43:52.797Z,22.37
2019-02-22T19:46:22.622Z,22.07
2019-02-22T19:48:52.339Z,21.87
2019-02-22T19:51:22.081Z,26.20
2019-02-22T19:53:51.847Z,22.93
2019-02-22T19:56:22.741Z,22.33
2019-02-22T19:58:52.658Z,21.20
2019-02-22T20:01:22.939Z,20.27
2019-02-22T20:03:53.089Z,19.57
2019-02-22T20:06:22.787Z,20.20
2019-02-22T20:08:52.673Z,18.40
2019-02-22T20:11:22.596Z,17.93
2019-02-22T20:13:52.274Z,17.20
2019-02-22T20:16:22.220Z,17.60
2019-02-22T20:18:51.808Z,18.73
2019-02-22T20:21:22.498Z,17.43
2019-02-22T20:23:52.150Z,17.37
2019-02-22T20:26:21.908Z,18.30
2019-02-22T20:28:51.619Z,18.33
2019-02-22T20:31:21.334Z,18.30
2019-02-22T20:33:51.080Z,17.50
2019-02-22T20:36:28.129Z,18.20
2019-02-22T20:38:52.584Z,17.23
2019-02-22T20:41:22.370Z,19.27
2019-02-22T20:43:52.205Z,18.40
2019-02-22T20:46:21.873Z,18.13
2019-02-22T20:49:00.529Z,17.07
2019-02-22T20:51:22.832Z,17.37
2019-02-22T20:53:52.486Z,17.37
2019-02-22T20:56:22.315Z,17.87
2019-02-22T20:58:52.055Z,16.90
2019-02-22T21:01:21.994Z,17.43
2019-02-22T21:03:51.802Z,17.83
2019-02-22T21:06:21.604Z,17.70
2019-02-22T21:08:51.247Z,17.33
2019-02-22T21:11:20.959Z,17.47
2019-02-22T21:13:50.739Z,18.10
2019-02-22T21:16:20.467Z,17.07
2019-02-22T21:18:50.127Z,17.60
2019-02-22T21:21:19.737Z,18.43
2019-02-22T21:23:51.982Z,18.57
2019-02-22T21:26:20.815Z,17.50
2019-02-22T21:28:50.414Z,18.30
2019-02-22T21:31:20.241Z,17.17
2019-02-22T21:33:50.054Z,17.10
2019-02-22T21:36:19.808Z,17.60
2019-02-22T21:38:49.440Z,18.23
2019-02-22T21:41:19.192Z,17.30
2019-02-22T21:43:48.820Z,18.07
2019-02-22T21:46:18.575Z,19.60
2019-02-22T21:48:48.200Z,17.10
2019-02-22T21:51:18.259Z,16.97
2019-02-22T21:53:47.966Z,17.43
2019-02-22T21:56:17.754Z,21.12
2019-02-22T21:58:48.851Z,17.90
2019-02-22T22:01:18.791Z,17.07
2019-02-22T22:03:48.425Z,18.30
2019-02-22T22:06:18.055Z,17.83
2019-02-22T22:08:48.226Z,17.90
2019-02-22T22:11:17.950Z,18.13
2019-02-22T22:13:47.957Z,18.53
2019-02-22T22:16:17.885Z,18.30
2019-02-22T22:18:47.605Z,18.37
2019-02-22T22:21:17.425Z,19.10
2019-02-22T22:23:47.512Z,19.67
2019-02-22T22:26:17.483Z,18.83
2019-02-22T22:28:47.978Z,18.07
2019-02-22T22:31:17.674Z,19.03
2019-02-22T22:33:47.682Z,19.00
2019-02-22T22:36:17.527Z,19.53
2019-02-22T22:38:47.370Z,19.43
2019-02-22T22:41:17.271Z,18.93
2019-02-22T22:43:47.424Z,18.00
2019-02-22T22:46:17.319Z,19.20
2019-02-22T22:48:50.769Z,19.03
2019-02-22T22:51:19.331Z,19.47
2019-02-22T22:53:49.385Z,19.17
2019-02-22T22:56:19.174Z,19.00
2019-02-22T22:58:49.341Z,18.80
2019-02-22T23:01:19.629Z,18.77
2019-02-22T23:03:49.743Z,20.37
2019-02-22T23:06:19.426Z,19.67
2019-02-22T23:08:49.423Z,20.10
2019-02-22T23:11:19.538Z,20.50
2019-02-22T23:13:49.653Z,21.30
2019-02-22T23:16:19.428Z,18.70
2019-02-22T23:18:49.489Z,19.47
2019-02-22T23:21:19.616Z,19.37
2019-02-22T23:23:49.719Z,19.07
2019-02-22T23:26:19.753Z,20.33
2019-02-22T23:28:49.930Z,19.50
2019-02-22T23:31:19.700Z,18.27
2019-02-22T23:33:49.444Z,18.40
2019-02-22T23:36:19.177Z,19.33
2019-02-22T23:38:48.907Z,18.23
2019-02-22T23:41:18.662Z,18.77
2019-02-22T23:43:48.398Z,19.40
2019-02-22T23:46:18.061Z,18.80
2019-02-22T23:48:47.735Z,17.33
2019-02-22T23:51:17.479Z,17.60
2019-02-22T23:53:47.124Z,16.97
2019-02-22T23:56:16.948Z,16.40
2019-02-22T23:58:46.468Z,16.43
